createdAt,value
2023-02-06T00:01:45.981Z,103384.34
2023-02-06T00:04:14.936Z,103389.66
2023-02-06T00:06:43.660Z,103381.72
2023-02-06T00:09:12.529Z,103382.59
2023-02-06T00:11:41.905Z,103377.31
2023-02-06T00:14:10.000Z,103372.03
2023-02-06T00:16:38.368Z,103370.22
2023-02-06T00:19:06.603Z,103359.66
2023-02-06T00:21:34.970Z,103361.41
2023-02-06T00:24:03.992Z,103373.72
2023-02-06T00:26:32.521Z,103366.69
2023-02-06T00:29:01.951Z,103366.69
2023-02-06T00:31:30.386Z,103368.50
2023-02-06T00:33:58.525Z,103369.34
2023-02-06T00:36:26.652Z,103371.16
2023-02-06T00:38:54.716Z,103374.78
2023-02-06T00:41:22.832Z,103362.44
2023-02-06T00:43:50.849Z,103362.47
2023-02-06T00:46:20.274Z,103362.34
2023-02-06T00:48:48.387Z,103359.75
2023-02-06T00:51:16.454Z,103363.34
2023-02-06T00:53:44.500Z,103366.84
2023-02-06T00:56:12.566Z,103370.47
2023-02-06T00:58:40.592Z,103367.84
2023-02-06T01:01:09.084Z,103371.34
2023-02-06T01:03:38.882Z,103379.28
2023-02-06T01:06:07.304Z,103386.31
2023-02-06T01:08:35.340Z,103388.16
2023-02-06T01:11:03.376Z,103385.50
2023-02-06T01:13:31.483Z,103391.59
2023-02-06T01:15:59.517Z,103394.16
2023-02-06T01:18:27.691Z,103385.41
2023-02-06T01:20:57.074Z,103382.75
2023-02-06T01:23:25.979Z,103383.66
2023-02-06T01:25:54.043Z,103393.41
2023-02-06T01:28:22.135Z,103396.03
2023-02-06T01:30:50.197Z,103392.47
2023-02-06T01:33:18.331Z,103403.88
2023-02-06T01:35:46.770Z,103388.03
2023-02-06T01:38:16.144Z,103391.50
2023-02-06T01:40:44.229Z,103393.25
2023-02-06T01:43:19.158Z,103381.81
2023-02-06T01:45:48.437Z,103387.97
2023-02-06T01:48:21.873Z,103377.34
2023-02-06T01:50:55.383Z,103380.94
2023-02-06T01:53:27.409Z,103388.03
2023-02-06T01:55:57.497Z,103382.75
2023-02-06T01:58:32.814Z,103386.38
2023-02-06T02:01:04.033Z,103380.38
2023-02-06T02:03:36.782Z,103382.97
2023-02-06T02:06:10.306Z,103380.25
2023-02-06T02:08:43.408Z,103380.31
2023-02-06T02:11:17.996Z,103379.41
2023-02-06T02:13:46.879Z,103384.63
2023-02-06T02:16:24.445Z,103382.84
2023-02-06T02:19:17.182Z,103392.53
2023-02-06T02:22:24.404Z,103388.16
2023-02-06T02:25:41.529Z,103390.84
2023-02-06T02:28:43.178Z,103411.91
2023-02-06T02:31:55.755Z,103408.38
2023-02-06T02:35:14.640Z,103411.97
2023-02-06T02:38:01.205Z,103414.56
2023-02-06T02:40:41.333Z,103401.44
2023-02-06T02:43:26.024Z,103403.25
2023-02-06T02:46:03.795Z,103404.06
2023-02-06T02:48:38.789Z,103399.59
2023-02-06T02:51:11.293Z,103404.88
2023-02-06T02:53:39.805Z,103410.13
2023-02-06T02:56:18.616Z,103404.88
2023-02-06T02:58:51.918Z,103405.72
2023-02-06T03:01:26.780Z,103399.56
2023-02-06T03:03:59.380Z,103407.50
2023-02-06T03:07:03.924Z,103410.22
2023-02-06T03:09:49.502Z,103398.81
2023-02-06T03:12:29.129Z,103402.38
2023-02-06T03:15:05.023Z,103396.28
2023-02-06T03:17:41.927Z,103391.94
2023-02-06T03:20:12.552Z,103393.75
2023-02-06T03:22:46.277Z,103387.69
2023-02-06T03:25:21.310Z,103383.41
2023-02-06T03:27:51.892Z,103388.72
2023-02-06T03:30:24.805Z,103397.59
2023-02-06T03:33:02.380Z,103401.03
2023-02-06T03:35:37.137Z,103386.25
2023-02-06T03:38:10.163Z,103387.19
2023-02-06T03:40:44.231Z,103384.56
2023-02-06T03:43:18.557Z,103384.53
2023-02-06T03:45:52.440Z,103374.94
2023-02-06T03:48:28.569Z,103376.63
2023-02-06T03:51:01.178Z,103370.41
2023-02-06T03:53:35.728Z,103369.63
2023-02-06T03:56:13.563Z,103373.19
2023-02-06T03:58:41.601Z,103372.34
2023-02-06T04:01:10.272Z,103361.13
2023-02-06T04:03:38.337Z,103362.00
2023-02-06T04:06:06.520Z,103365.50
2023-02-06T04:08:35.916Z,103359.31
2023-02-06T04:11:04.006Z,103350.59
2023-02-06T04:13:32.087Z,103354.03
2023-02-06T04:16:00.442Z,103359.38
2023-02-06T04:18:28.512Z,103360.31
2023-02-06T04:20:56.787Z,103355.28
2023-02-06T04:23:24.839Z,103361.69
2023-02-06T04:25:54.243Z,103359.94
2023-02-06T04:28:22.371Z,103352.81
2023-02-06T04:30:50.665Z,103351.91
2023-02-06T04:33:19.180Z,103343.06
2023-02-06T04:35:49.187Z,103343.94
2023-02-06T04:38:17.348Z,103355.38
2023-02-06T04:40:45.595Z,103361.69
2023-02-06T04:43:15.001Z,103353.84
2023-02-06T04:45:43.015Z,103342.56
2023-02-06T04:48:11.038Z,103354.78
2023-02-06T04:50:39.099Z,103361.00
2023-02-06T04:53:07.199Z,103353.06
2023-02-06T04:55:37.069Z,103348.88
2023-02-06T04:58:05.312Z,103341.81
2023-02-06T05:00:35.680Z,103356.72
2023-02-06T05:03:04.424Z,103354.19
2023-02-06T05:05:32.982Z,103349.91
2023-02-06T05:08:01.099Z,103351.78
2023-02-06T05:10:29.226Z,103353.53
2023-02-06T05:12:57.263Z,103355.50
2023-02-06T05:15:25.293Z,103351.84
2023-02-06T05:17:55.595Z,103358.22
2023-02-06T05:20:23.968Z,103360.78
2023-02-06T05:22:52.018Z,103373.06
2023-02-06T05:25:20.155Z,103357.41
2023-02-06T05:27:48.515Z,103367.81
2023-02-06T05:30:16.737Z,103373.00
2023-02-06T05:32:45.048Z,103383.41
2023-02-06T05:35:14.467Z,103373.75
2023-02-06T05:37:42.486Z,103373.63
2023-02-06T05:40:12.613Z,103372.81
2023-02-06T05:42:40.685Z,103382.50
2023-02-06T05:45:10.309Z,103380.78
2023-02-06T05:47:38.362Z,103379.81
2023-02-06T05:50:07.756Z,103388.63
2023-02-06T05:52:37.213Z,103379.00
2023-02-06T05:55:05.760Z,103385.16
2023-02-06T05:57:33.980Z,103389.50
2023-02-06T06:00:02.287Z,103401.81
2023-02-06T06:02:30.312Z,103401.84
2023-02-06T06:04:58.550Z,103404.50
2023-02-06T06:07:26.686Z,103400.44
2023-02-06T06:09:56.154Z,103404.78
2023-02-06T06:12:24.271Z,103398.59
2023-02-06T06:14:52.308Z,103404.78
2023-02-06T06:17:20.365Z,103408.47
2023-02-06T06:19:48.409Z,103418.06
2023-02-06T06:22:16.492Z,103412.78
2023-02-06T06:24:44.540Z,103410.09
2023-02-06T06:27:13.936Z,103417.31
2023-02-06T06:29:42.034Z,103413.84
2023-02-06T06:32:10.139Z,103420.75
2023-02-06T06:34:38.257Z,103418.88
2023-02-06T06:37:06.335Z,103419.81
2023-02-06T06:39:34.364Z,103424.16
2023-02-06T06:42:04.307Z,103432.94
2023-02-06T06:44:33.680Z,103436.38
2023-02-06T06:47:01.689Z,103443.41
2023-02-06T06:49:29.721Z,103439.09
2023-02-06T06:51:59.404Z,103439.06
2023-02-06T06:54:27.583Z,103437.19
2023-02-06T06:56:55.964Z,103438.97
2023-02-06T06:59:24.029Z,103424.97
2023-02-06T07:01:53.464Z,103430.22
2023-02-06T07:04:21.887Z,103429.34
2023-02-06T07:06:50.172Z,103428.47
2023-02-06T07:09:18.194Z,103432.09
2023-02-06T07:11:46.201Z,103435.56
2023-02-06T07:14:14.449Z,103428.53
2023-02-06T07:16:42.510Z,103416.50
2023-02-06T07:19:11.936Z,103421.00
2023-02-06T07:21:39.992Z,103428.03
2023-02-06T07:24:08.837Z,103433.47
2023-02-06T07:26:37.067Z,103436.06
2023-02-06T07:29:05.401Z,103441.13
2023-02-06T07:31:33.693Z,103440.25
2023-02-06T07:34:02.206Z,103434.94
2023-02-06T07:36:31.908Z,103449.03
2023-02-06T07:38:59.964Z,103451.66
2023-02-06T07:41:27.987Z,103447.22
2023-02-06T07:43:56.393Z,103445.34
2023-02-06T07:46:24.497Z,103443.66
2023-02-06T07:48:52.885Z,103445.50
2023-02-06T07:51:20.967Z,103456.00
2023-02-06T07:53:51.122Z,103457.94
2023-02-06T07:56:23.172Z,103455.19
2023-02-06T07:58:53.100Z,103450.69
2023-02-06T08:01:22.109Z,103460.38
2023-02-06T08:03:51.131Z,103465.84
2023-02-06T08:06:23.255Z,103464.03
2023-02-06T08:08:57.344Z,103446.34
2023-02-06T08:11:27.757Z,103452.38
2023-02-06T08:13:55.780Z,103449.06
2023-02-06T08:16:25.449Z,103445.47
2023-02-06T08:18:54.007Z,103449.69
2023-02-06T08:21:24.952Z,103444.28
2023-02-06T08:23:57.797Z,103450.41
2023-02-06T08:26:28.064Z,103444.28
2023-02-06T08:28:58.103Z,103439.25
2023-02-06T08:31:29.295Z,103434.19
2023-02-06T08:33:57.732Z,103441.91
2023-02-06T08:36:27.310Z,103434.81
2023-02-06T08:38:57.001Z,103434.75
2023-02-06T08:41:28.007Z,103436.50
2023-02-06T08:43:58.953Z,103439.97
2023-02-06T08:46:31.646Z,103441.59
2023-02-06T08:49:03.850Z,103431.91
2023-02-06T08:51:32.771Z,103439.69
2023-02-06T08:54:05.460Z,103435.31
2023-02-06T08:56:36.549Z,103434.50
2023-02-06T08:59:06.620Z,103431.66
2023-02-06T09:01:37.553Z,103421.19
2023-02-06T09:04:09.392Z,103412.66
2023-02-06T09:06:41.311Z,103404.69
2023-02-06T09:09:13.311Z,103409.97
2023-02-06T09:11:42.505Z,103415.03
2023-02-06T09:14:16.642Z,103411.44
2023-02-06T09:16:47.819Z,103408.59
2023-02-06T09:19:15.954Z,103403.22
2023-02-06T09:21:43.984Z,103400.56
2023-02-06T09:24:13.393Z,103401.34
2023-02-06T09:26:58.480Z,103405.66
2023-02-06T09:29:29.017Z,103412.78
2023-02-06T09:31:58.049Z,103405.59
2023-02-06T09:34:26.905Z,103401.97
2023-02-06T09:36:56.630Z,103405.41
2023-02-06T09:39:26.894Z,103405.19
2023-02-06T09:42:01.053Z,103408.69
2023-02-06T09:44:34.237Z,103410.22
2023-02-06T09:47:14.329Z,103410.06
2023-02-06T09:49:51.428Z,103417.88
2023-02-06T09:52:53.465Z,103413.28
2023-02-06T09:55:34.252Z,103413.19
2023-02-06T09:58:19.092Z,103413.03
2023-02-06T10:00:54.356Z,103405.75
2023-02-06T10:03:44.943Z,103398.59
2023-02-06T10:06:21.834Z,103400.22
2023-02-06T10:09:01.258Z,103403.66
2023-02-06T10:11:45.040Z,103413.22
2023-02-06T10:14:23.195Z,103396.34
2023-02-06T10:16:59.981Z,103406.72
2023-02-06T10:19:44.125Z,103396.25
2023-02-06T10:22:20.888Z,103388.28
2023-02-06T10:25:04.408Z,103392.72
2023-02-06T10:27:36.390Z,103382.94
2023-02-06T10:30:05.214Z,103393.38
2023-02-06T10:32:46.844Z,103402.06
2023-02-06T10:35:30.861Z,103395.06
2023-02-06T10:38:26.492Z,103395.06
2023-02-06T10:41:03.880Z,103383.66
2023-02-06T10:43:47.942Z,103387.91
2023-02-06T10:46:50.677Z,103395.78
2023-02-06T10:49:33.833Z,103386.13
2023-02-06T10:52:15.758Z,103394.84
2023-02-06T10:54:53.076Z,103393.09
2023-02-06T10:57:27.773Z,103384.22
2023-02-06T11:00:02.703Z,103388.50
2023-02-06T11:02:44.116Z,103388.41
2023-02-06T11:05:20.113Z,103386.53
2023-02-06T11:07:53.761Z,103381.16
2023-02-06T11:10:25.367Z,103381.09
2023-02-06T11:13:03.861Z,103379.13
2023-02-06T11:15:39.900Z,103372.00
2023-02-06T11:18:18.493Z,103367.56
2023-02-06T11:20:50.130Z,103379.25
2023-02-06T11:23:21.997Z,103379.06
2023-02-06T11:26:04.217Z,103377.28
2023-02-06T11:28:35.012Z,103379.03
2023-02-06T11:31:07.875Z,103373.75
2023-02-06T11:33:47.280Z,103378.16
2023-02-06T11:36:27.325Z,103365.75
2023-02-06T11:38:59.857Z,103373.69
2023-02-06T11:41:29.519Z,103370.19
2023-02-06T11:44:02.795Z,103373.56
2023-02-06T11:46:35.109Z,103365.53
2023-02-06T11:49:09.191Z,103355.75
2023-02-06T11:51:51.529Z,103370.63
2023-02-06T11:54:24.983Z,103380.22
2023-02-06T11:57:04.218Z,103375.78
2023-02-06T11:59:35.322Z,103378.56
2023-02-06T12:02:28.329Z,103380.31
2023-02-06T12:05:11.449Z,103389.94
2023-02-06T12:07:44.225Z,103380.31
2023-02-06T12:10:15.928Z,103377.69
2023-02-06T12:12:50.723Z,103382.88
2023-02-06T12:15:44.783Z,103382.06
2023-02-06T12:18:19.664Z,103378.66
2023-02-06T12:20:55.304Z,103376.91
2023-02-06T12:23:28.773Z,103378.53
2023-02-06T12:26:01.806Z,103389.84
2023-02-06T12:28:38.286Z,103388.16
2023-02-06T12:31:19.221Z,103382.75
2023-02-06T12:33:55.154Z,103385.34
2023-02-06T12:36:26.467Z,103385.28
2023-02-06T12:39:01.810Z,103379.91
2023-02-06T12:41:53.034Z,103387.03
2023-02-06T12:44:31.156Z,103385.19
2023-02-06T12:47:10.930Z,103385.91
2023-02-06T12:49:54.297Z,103388.53
2023-02-06T12:52:31.051Z,103384.00
2023-02-06T12:55:14.471Z,103382.63
2023-02-06T12:57:43.389Z,103383.44
2023-02-06T13:00:51.366Z,103374.38
2023-02-06T13:03:33.665Z,103378.69
2023-02-06T13:06:19.170Z,103377.78
2023-02-06T13:08:55.940Z,103385.25
2023-02-06T13:11:32.473Z,103384.56
2023-02-06T13:14:05.872Z,103386.31
2023-02-06T13:16:53.629Z,103377.84
2023-02-06T13:19:50.491Z,103379.78
2023-02-06T13:22:44.757Z,103379.16
2023-02-06T13:25:49.482Z,103379.06
2023-02-06T13:28:58.926Z,103378.75
2023-02-06T13:31:36.073Z,103377.00
2023-02-06T13:34:18.240Z,103381.53
2023-02-06T13:36:53.339Z,103390.38
2023-02-06T13:39:33.590Z,103390.03
2023-02-06T13:42:41.800Z,103389.16
2023-02-06T13:45:21.340Z,103389.88
2023-02-06T13:48:40.946Z,103412.88
2023-02-06T13:51:50.205Z,103415.88
2023-02-06T13:54:44.578Z,103419.41
2023-02-06T13:57:54.313Z,103415.09
2023-02-06T14:00:28.802Z,103415.88
2023-02-06T14:03:13.675Z,103414.44
2023-02-06T14:05:59.640Z,103410.00
2023-02-06T14:08:44.729Z,103414.31
2023-02-06T14:11:55.230Z,103409.13
2023-02-06T14:14:46.551Z,103412.47
2023-02-06T14:17:35.108Z,103406.31
2023-02-06T14:20:18.891Z,103399.97
2023-02-06T14:23:02.848Z,103407.84
2023-02-06T14:25:57.235Z,103397.91
2023-02-06T14:28:46.471Z,103392.84
2023-02-06T14:31:40.328Z,103392.22
2023-02-06T14:34:34.036Z,103387.94
2023-02-06T14:37:30.821Z,103380.81
2023-02-06T14:40:07.496Z,103388.28
2023-02-06T14:42:41.804Z,103383.03
2023-02-06T14:45:30.476Z,103383.03
2023-02-06T14:48:03.824Z,103378.66
2023-02-06T14:50:35.704Z,103382.22
2023-02-06T14:53:11.132Z,103391.81
2023-02-06T14:55:44.578Z,103392.28
2023-02-06T14:58:25.730Z,103389.53
2023-02-06T15:00:57.577Z,103394.00
2023-02-06T15:03:28.194Z,103398.44
2023-02-06T15:06:03.844Z,103395.81
2023-02-06T15:08:33.375Z,103398.44
2023-02-06T15:11:04.873Z,103396.59
2023-02-06T15:13:37.632Z,103410.47
2023-02-06T15:16:10.026Z,103407.69
2023-02-06T15:18:39.387Z,103408.44
2023-02-06T15:21:12.412Z,103411.16
2023-02-06T15:24:10.542Z,103405.94
2023-02-06T15:26:54.719Z,103402.66
2023-02-06T15:29:27.530Z,103406.59
2023-02-06T15:32:05.160Z,103412.13
2023-02-06T15:34:33.691Z,103415.88
2023-02-06T15:37:01.801Z,103413.41
2023-02-06T15:39:30.100Z,103409.06
2023-02-06T15:41:58.383Z,103413.63
2023-02-06T15:44:34.188Z,103418.19
2023-02-06T15:47:08.765Z,103422.78
2023-02-06T15:49:41.324Z,103421.25
2023-02-06T15:52:10.784Z,103424.94
2023-02-06T15:54:42.530Z,103429.50
2023-02-06T15:57:34.874Z,103430.44
2023-02-06T16:00:09.424Z,103441.09
2023-02-06T16:02:41.885Z,103437.72
2023-02-06T16:05:23.836Z,103444.81
2023-02-06T16:07:52.103Z,103436.06
2023-02-06T16:10:26.474Z,103438.06
2023-02-06T16:12:57.306Z,103428.38
2023-02-06T16:15:34.242Z,103431.06
2023-02-06T16:18:29.926Z,103435.66
2023-02-06T16:21:21.370Z,103436.72
2023-02-06T16:23:52.692Z,103430.66
2023-02-06T16:26:24.846Z,103419.56
2023-02-06T16:29:00.267Z,103428.41
2023-02-06T16:31:31.577Z,103431.03
2023-02-06T16:34:03.239Z,103433.84
2023-02-06T16:36:33.849Z,103434.75
2023-02-06T16:39:04.786Z,103433.94
2023-02-06T16:41:36.046Z,103434.31
2023-02-06T16:44:08.461Z,103436.25
2023-02-06T16:46:36.610Z,103438.06
2023-02-06T16:49:12.796Z,103445.56
2023-02-06T16:51:44.443Z,103449.25
2023-02-06T16:54:21.401Z,103451.06
2023-02-06T16:56:50.126Z,103453.19
2023-02-06T16:59:18.297Z,103447.72
2023-02-06T17:01:46.496Z,103450.28
2023-02-06T17:04:15.952Z,103458.47
2023-02-06T17:06:44.183Z,103449.41
2023-02-06T17:09:18.311Z,103452.22
2023-02-06T17:11:46.395Z,103446.13
2023-02-06T17:14:14.511Z,103453.19
2023-02-06T17:16:42.637Z,103455.00
2023-02-06T17:19:14.834Z,103454.78
2023-02-06T17:21:44.259Z,103453.19
2023-02-06T17:24:12.294Z,103463.91
2023-02-06T17:26:40.380Z,103456.59
2023-02-06T17:29:08.465Z,103460.13
2023-02-06T17:31:36.569Z,103469.97
2023-02-06T17:34:04.760Z,103470.63
2023-02-06T17:36:39.446Z,103478.53
2023-02-06T17:39:08.872Z,103481.53
2023-02-06T17:41:37.019Z,103472.59
2023-02-06T17:44:05.772Z,103472.44
2023-02-06T17:46:33.933Z,103463.53
2023-02-06T17:49:02.017Z,103471.59
2023-02-06T17:51:30.402Z,103468.03
2023-02-06T17:53:59.057Z,103466.19
2023-02-06T17:56:28.863Z,103458.25
2023-02-06T17:58:57.003Z,103464.38
2023-02-06T18:01:26.166Z,103462.69
2023-02-06T18:03:54.364Z,103466.19
2023-02-06T18:06:22.858Z,103470.53
2023-02-06T18:08:51.785Z,103470.63
2023-02-06T18:11:22.790Z,103475.22
2023-02-06T18:13:52.351Z,103462.03
2023-02-06T18:16:24.179Z,103466.50
2023-02-06T18:18:52.675Z,103471.97
2023-02-06T18:21:24.422Z,103473.75
2023-02-06T18:23:54.310Z,103471.91
2023-02-06T18:26:24.290Z,103469.34
2023-02-06T18:28:53.914Z,103481.88
2023-02-06T18:31:26.755Z,103478.44
2023-02-06T18:33:55.312Z,103482.91
2023-02-06T18:36:24.510Z,103489.13
2023-02-06T18:38:53.456Z,103490.00
2023-02-06T18:41:39.147Z,103483.94
2023-02-06T18:44:11.254Z,103490.16
2023-02-06T18:46:40.205Z,103490.22
2023-02-06T18:49:08.347Z,103487.66
2023-02-06T18:51:36.469Z,103488.56
2023-02-06T18:54:07.708Z,103492.94
2023-02-06T18:56:35.933Z,103481.88
2023-02-06T18:59:04.704Z,103479.59
2023-02-06T19:01:34.211Z,103480.66
2023-02-06T19:04:02.290Z,103479.72
2023-02-06T19:06:35.521Z,103474.56
2023-02-06T19:09:07.528Z,103462.94
2023-02-06T19:11:36.171Z,103460.38
2023-02-06T19:14:05.545Z,103453.47
2023-02-06T19:16:38.389Z,103457.94
2023-02-06T19:19:08.509Z,103461.53
2023-02-06T19:21:36.673Z,103470.56
2023-02-06T19:24:06.051Z,103468.75
2023-02-06T19:26:34.797Z,103463.41
2023-02-06T19:29:02.946Z,103454.63
2023-02-06T19:31:32.246Z,103456.63
2023-02-06T19:34:02.858Z,103466.22
2023-02-06T19:36:32.366Z,103473.28
2023-02-06T19:39:03.519Z,103464.53
2023-02-06T19:41:34.423Z,103461.00
2023-02-06T19:44:05.566Z,103469.25
2023-02-06T19:46:35.490Z,103470.06
2023-02-06T19:49:08.535Z,103480.53
2023-02-06T19:51:40.166Z,103480.53
2023-02-06T19:54:09.284Z,103475.25
2023-02-06T19:56:40.994Z,103484.81
2023-02-06T19:59:17.943Z,103476.91
2023-02-06T20:01:46.787Z,103479.66
2023-02-06T20:04:16.728Z,103477.03
2023-02-06T20:06:45.884Z,103477.78
2023-02-06T20:09:16.569Z,103483.97
2023-02-06T20:11:44.805Z,103479.72
2023-02-06T20:14:13.379Z,103491.19
2023-02-06T20:16:43.587Z,103491.19
2023-02-06T20:19:20.058Z,103499.91
2023-02-06T20:21:51.844Z,103494.63
2023-02-06T20:24:23.715Z,103492.91
2023-02-06T20:26:55.979Z,103491.13
2023-02-06T20:29:27.686Z,103491.06
2023-02-06T20:31:57.028Z,103501.66
2023-02-06T20:34:28.569Z,103499.97
2023-02-06T20:36:57.242Z,103492.13
2023-02-06T20:39:27.576Z,103493.88
2023-02-06T20:41:55.812Z,103496.50
2023-02-06T20:44:23.998Z,103500.94
2023-02-06T20:46:52.446Z,103498.38
2023-02-06T20:49:23.609Z,103497.56
2023-02-06T20:51:53.495Z,103491.41
2023-02-06T20:54:23.190Z,103496.91
2023-02-06T20:56:52.065Z,103497.06
2023-02-06T20:59:21.934Z,103486.31
2023-02-06T21:01:50.309Z,103488.13
2023-02-06T21:04:20.897Z,103489.91
2023-02-06T21:06:49.962Z,103483.00
2023-02-06T21:09:20.159Z,103488.28
2023-02-06T21:11:50.545Z,103478.59
2023-02-06T21:14:20.430Z,103479.50
2023-02-06T21:16:49.569Z,103479.47
2023-02-06T21:19:21.260Z,103478.81
2023-02-06T21:21:50.125Z,103487.63
2023-02-06T21:24:19.728Z,103477.88
2023-02-06T21:26:48.063Z,103482.25
2023-02-06T21:29:16.804Z,103482.25
2023-02-06T21:31:46.131Z,103483.13
2023-02-06T21:34:17.417Z,103487.53
2023-02-06T21:36:46.743Z,103491.84
2023-02-06T21:39:20.130Z,103485.66
2023-02-06T21:41:51.551Z,103483.97
2023-02-06T21:44:19.745Z,103472.66
2023-02-06T21:46:47.877Z,103476.13
2023-02-06T21:49:16.023Z,103490.19
2023-02-06T21:51:44.820Z,103482.25
2023-02-06T21:54:12.906Z,103479.72
2023-02-06T21:56:42.353Z,103478.75
2023-02-06T21:59:12.526Z,103484.03
2023-02-06T22:01:41.250Z,103490.25
2023-02-06T22:04:12.129Z,103486.75
2023-02-06T22:06:40.897Z,103494.66
2023-02-06T22:09:16.556Z,103497.28
2023-02-06T22:11:47.473Z,103500.84
2023-02-06T22:14:18.426Z,103507.03
2023-02-06T22:16:47.485Z,103507.06
2023-02-06T22:19:17.240Z,103527.28
2023-02-06T22:21:45.753Z,103523.88
2023-02-06T22:24:14.462Z,103529.97
2023-02-06T22:26:43.014Z,103533.53
2023-02-06T22:29:16.687Z,103539.59
2023-02-06T22:31:46.217Z,103542.25
2023-02-06T22:34:18.550Z,103544.97
2023-02-06T22:36:46.912Z,103550.19
2023-02-06T22:39:16.144Z,103550.19
2023-02-06T22:41:47.037Z,103552.81
2023-02-06T22:44:18.550Z,103558.22
2023-02-06T22:46:50.319Z,103565.19
2023-02-06T22:49:20.402Z,103561.81
2023-02-06T22:51:48.711Z,103568.94
2023-02-06T22:54:16.929Z,103575.97
2023-02-06T22:56:46.454Z,103569.88
2023-02-06T22:59:18.712Z,103573.44
2023-02-06T23:01:49.872Z,103585.66
2023-02-06T23:04:20.722Z,103584.84
2023-02-06T23:06:50.342Z,103598.13
2023-02-06T23:09:21.212Z,103598.19
2023-02-06T23:11:50.104Z,103600.88
2023-02-06T23:14:21.053Z,103605.25
2023-02-06T23:16:49.969Z,103603.50
2023-02-06T23:19:19.603Z,103605.13
2023-02-06T23:21:51.093Z,103607.78
2023-02-06T23:24:19.972Z,103605.28
2023-02-06T23:26:51.202Z,103602.66
2023-02-06T23:29:22.696Z,103605.28
2023-02-06T23:31:51.758Z,103602.63
2023-02-06T23:34:23.563Z,103593.81
2023-02-06T23:36:52.854Z,103596.44
2023-02-06T23:39:21.335Z,103592.94
2023-02-06T23:41:49.778Z,103589.50
2023-02-06T23:44:17.900Z,103587.75
2023-02-06T23:46:47.693Z,103588.59
2023-02-06T23:49:15.900Z,103589.47
2023-02-06T23:51:44.079Z,103589.53
2023-02-06T23:54:12.244Z,103590.47
2023-02-06T23:56:40.836Z,103578.16
2023-02-06T23:59:08.945Z,103578.25
